^^
Saratoga-Weather Station Historical Data
Daily Summary for June 29, 2020 Units:  English    Metric   Both
Daily Weekly Monthly Yearly Custom
  High: Low: Average:
Temperature: 36.5 °F 33.6 °F 34.9 °F
Dew Point: 35.1 °F 30 °F 32.5 °F
Humidity: 96% 81% 91%
Wind Speed: 6.9mph 0mph 2.5mph
Wind Gust: 12mph - -
Wind- - East
Pressure: 30.3 in 30.1 in -
Precipitation: 0 in    
Historical Graphs
 
 
Tabular Data for June 29, 2020
Time Temperature Dew Point Pressure Wind Wind Speed Wind Gust Humidity Rainfall Rate (Hourly) solar
00:01 34.3 °F 33.3 °F 30.1 in NW 0.9 mph 3 mph 96% 0 in 0 W/m2
00:06 34.3 °F 33.3 °F 30.1 in Calm   3 mph 96% 0 in 0 W/m2
00:11 34.3 °F 33.3 °F 30.1 in Calm   1 mph 96% 0 in 0 W/m2
00:16 34.3 °F 33.3 °F 30.1 in Calm   2 mph 96% 0 in 0 W/m2
00:21 34.2 °F 33.1 °F 30.1 in Calm   2 mph 96% 0 in 0 W/m2
00:26 34.2 °F 33.1 °F 30.1 in West 0.9 mph 1 mph 96% 0 in 0 W/m2
00:31 34 °F 32.7 °F 30.1 in Calm   1 mph 95% 0 in 0 W/m2
00:36 33.6 °F 32.5 °F 30.1 in Calm     96% 0 in 0 W/m2
00:41 33.6 °F 32.5 °F 30.1 in West 0.9 mph 1 mph 96% 0 in 0 W/m2
00:46 33.6 °F 32.5 °F 30.1 in Calm     96% 0 in 0 W/m2
00:51 33.6 °F 32.5 °F 30.1 in SSW 0.9 mph 2 mph 96% 0 in 0 W/m2
00:56 33.6 °F 32.5 °F 30.1 in SE 2 mph 2 mph 96% 0 in 0 W/m2
01:01 33.8 °F 32.7 °F 30.1 in SE 2.9 mph 4 mph 96% 0 in 0 W/m2
01:06 34 °F 32.9 °F 30.1 in East 0.9 mph 3 mph 96% 0 in 0 W/m2
01:11 34 °F 32.9 °F 30.2 in NNE 2 mph 4 mph 96% 0 in 0 W/m2
01:16 34.2 °F 33.1 °F 30.2 in Calm   2 mph 96% 0 in 0 W/m2
01:21 34.2 °F 33.1 °F 30.2 in ENE 2 mph 4 mph 96% 0 in 0 W/m2
01:26 34.2 °F 33.1 °F 30.2 in East 2.9 mph 7 mph 96% 0 in 0 W/m2
01:31 34.2 °F 33.1 °F 30.2 in ESE 2.9 mph 4 mph 96% 0 in 0 W/m2
01:36 34.2 °F 33.1 °F 30.2 in ENE 2 mph 2 mph 96% 0 in 0 W/m2
01:41 34.2 °F 33.1 °F 30.2 in Calm   2 mph 96% 0 in 0 W/m2
01:46 34.2 °F 33.1 °F 30.2 in Calm   4 mph 96% 0 in 0 W/m2
01:51 34.2 °F 33.1 °F 30.2 in NE 2.9 mph 4 mph 96% 0 in 0 W/m2
01:56 34.3 °F 33.3 °F 30.2 in ENE 0.9 mph 4 mph 96% 0 in 0 W/m2
02:01 34.3 °F 33.3 °F 30.2 in East 0.9 mph 4 mph 96% 0 in 0 W/m2
02:06 34.3 °F 33.3 °F 30.2 in ESE 2 mph 2 mph 96% 0 in 0 W/m2
02:11 34.3 °F 33.3 °F 30.2 in NE 0.9 mph 4 mph 96% 0 in 0 W/m2
02:16 34.5 °F 33.4 °F 30.2 in Calm   3 mph 96% 0 in 0 W/m2
02:21 34.5 °F 33.4 °F 30.2 in Calm   3 mph 96% 0 in 0 W/m2
02:26 34.7 °F 33.6 °F 30.2 in Calm   3 mph 96% 0 in 0 W/m2
02:31 34.9 °F 33.8 °F 30.2 in Calm   2 mph 96% 0 in 0 W/m2
02:36 34.9 °F 33.8 °F 30.2 in ENE 0.9 mph 5 mph 96% 0 in 0 W/m2
02:41 34.9 °F 33.8 °F 30.2 in SE 0.9 mph 3 mph 96% 0 in 0 W/m2
02:46 35.1 °F 34 °F 30.2 in East 0.9 mph 3 mph 96% 0 in 0 W/m2
02:51 35.1 °F 34 °F 30.2 in ESE 2.9 mph 7 mph 96% 0 in 0 W/m2
02:56 35.1 °F 34 °F 30.2 in East 2.9 mph 6 mph 96% 0 in 0 W/m2
03:01 35.2 °F 34.2 °F 30.2 in East 4 mph 7 mph 96% 0 in 0 W/m2
03:06 35.2 °F 34.2 °F 30.2 in East 2.9 mph 5 mph 96% 0 in 0 W/m2
03:11 35.2 °F 34.2 °F 30.2 in ENE 2 mph 8 mph 96% 0 in 0 W/m2
03:16 35.2 °F 34.2 °F 30.2 in East 0.9 mph 4 mph 96% 0 in 0 W/m2
03:21 35.2 °F 34.2 °F 30.2 in ESE 2 mph 4 mph 96% 0 in 0 W/m2
03:26 35.4 °F 34.3 °F 30.2 in ESE 6 mph 6 mph 96% 0 in 0 W/m2
03:31 35.4 °F 34.3 °F 30.2 in NE 2 mph 4 mph 96% 0 in 0 W/m2
03:36 35.4 °F 34.3 °F 30.2 in ENE 0.9 mph 4 mph 96% 0 in 0 W/m2
03:41 35.4 °F 34.3 °F 30.2 in ESE 2 mph 4 mph 96% 0 in 0 W/m2
03:46 35.4 °F 34.3 °F 30.2 in East 0.9 mph 2 mph 96% 0 in 0 W/m2
03:51 35.6 °F 34.5 °F 30.2 in ESE 2 mph 5 mph 96% 0 in 0 W/m2
03:56 35.6 °F 34.5 °F 30.2 in East 2 mph 6 mph 96% 0 in 0 W/m2
04:01 35.6 °F 34.5 °F 30.2 in East 2 mph 4 mph 96% 0 in 0 W/m2
04:06 35.6 °F 34.5 °F 30.2 in ENE 2 mph 5 mph 96% 0 in 0 W/m2
04:11 35.8 °F 34.7 °F 30.2 in East 2 mph 7 mph 96% 0 in 0 W/m2
04:16 35.8 °F 34.7 °F 30.2 in East 0.9 mph 4 mph 96% 0 in 0 W/m2
04:21 35.8 °F 34.7 °F 30.2 in NE 0.9 mph 3 mph 96% 0 in 0 W/m2
04:26 35.8 °F 34.7 °F 30.2 in ESE 2.9 mph 3 mph 96% 0 in 0 W/m2
04:31 35.8 °F 34.7 °F 30.2 in NNE 2 mph 4 mph 96% 0 in 0 W/m2
04:36 36 °F 34.9 °F 30.2 in ENE 2.9 mph 5 mph 96% 0 in 0 W/m2
04:41 36 °F 34.9 °F 30.2 in ESE 2 mph 8 mph 96% 0 in 0 W/m2
04:46 36 °F 34.9 °F 30.2 in East 0.9 mph 4 mph 96% 0 in 0 W/m2
04:51 36 °F 34.9 °F 30.2 in ESE 4 mph 8 mph 96% 0 in 0 W/m2
04:56 36.1 °F 35.1 °F 30.2 in ESE 2 mph 6 mph 96% 0 in 0 W/m2
05:01 36.1 °F 34.9 °F 30.2 in ENE 2 mph 8 mph 95% 0 in 0 W/m2
05:06 36.1 °F 34.9 °F 30.2 in ESE 2.9 mph 10 mph 95% 0 in 0 W/m2
05:11 36.1 °F 34.9 °F 30.2 in East 2 mph 7 mph 95% 0 in 0 W/m2
05:16 36.3 °F 35.1 °F 30.2 in SE 4 mph 7 mph 95% 0 in 0 W/m2
05:21 36.3 °F 35.1 °F 30.2 in SSE 0.9 mph 5 mph 95% 0 in 0 W/m2
05:26 36.3 °F 35.1 °F 30.2 in East 0.9 mph 4 mph 95% 0 in 0 W/m2
05:31 36.3 °F 35.1 °F 30.2 in ENE 6 mph 6 mph 95% 0 in 0 W/m2
05:37 36.3 °F 35.1 °F 30.2 in ESE 6 mph 8 mph 95% 0 in 0 W/m2
05:42 36.3 °F 34.7 °F 30.2 in East 4 mph 8 mph 94% 0 in 0 W/m2
05:47 36.3 °F 34.7 °F 30.2 in East 4 mph 10 mph 94% 0 in 0 W/m2
05:52 36.5 °F 34.9 °F 30.2 in East 4 mph 8 mph 94% 0 in 0 W/m2
05:57 36.5 °F 34.9 °F 30.2 in East 6 mph 12 mph 94% 0 in 0 W/m2
06:02 36.5 °F 34.9 °F 30.2 in ESE 4 mph 12 mph 94% 0 in 0 W/m2
06:07 36.5 °F 34.9 °F 30.2 in East 4 mph 10 mph 94% 0 in 0 W/m2
06:12 36.5 °F 34.9 °F 30.2 in NE 4.9 mph 6 mph 94% 0 in 0 W/m2
06:17 36.5 °F 34.9 °F 30.2 in ESE 2.9 mph 7 mph 94% 0 in 0 W/m2
06:22 36.5 °F 34.7 °F 30.2 in East 4 mph 5 mph 93% 0 in 0 W/m2
06:27 36.5 °F 34.7 °F 30.2 in ENE 2.9 mph 7 mph 93% 0 in 0 W/m2
06:32 36.5 °F 34.9 °F 30.2 in ESE 4 mph 6 mph 94% 0 in 0 W/m2
06:37 36.5 °F 34.9 °F 30.2 in ENE 2.9 mph 4 mph 94% 0 in 0 W/m2
06:42 36.5 °F 34.7 °F 30.2 in ENE 6.9 mph 8 mph 93% 0 in 0 W/m2
06:47 36.5 °F 34.7 °F 30.2 in NE 2.9 mph 7 mph 93% 0 in 0 W/m2
06:52 36.5 °F 34.7 °F 30.2 in ESE 4.9 mph 5 mph 93% 0 in 0 W/m2
06:57 36.5 °F 34.3 °F 30.2 in ESE 2 mph 4 mph 92% 0 in 0 W/m2
07:02 36.3 °F 34.2 °F 30.2 in SSE 2 mph 7 mph 92% 0 in 0 W/m2
07:07 36.3 °F 34.2 °F 30.2 in ESE 6 mph 8 mph 92% 0 in 0 W/m2
07:12 36.1 °F 33.8 °F 30.2 in ESE 2 mph 7 mph 91% 0 in 0 W/m2
07:17 36.1 °F 33.8 °F 30.2 in East 4 mph 9 mph 91% 0 in 0 W/m2
07:22 36.1 °F 33.8 °F 30.2 in ESE 2 mph 6 mph 91% 0 in 0 W/m2
07:27 36 °F 33.6 °F 30.2 in ESE 2.9 mph 9 mph 91% 0 in 0 W/m2
07:32 36 °F 33.6 °F 30.2 in East 4 mph 6 mph 91% 0 in 0 W/m2
07:37 35.8 °F 33.1 °F 30.2 in ESE 6 mph 8 mph 90% 0 in 0 W/m2
07:42 35.6 °F 32.9 °F 30.2 in SE 4.9 mph 6 mph 90% 0 in 0 W/m2
07:47 35.4 °F 32.7 °F 30.2 in East 2 mph 7 mph 90% 0 in 0 W/m2
07:52 35.2 °F 32.5 °F 30.2 in East 2 mph 7 mph 90% 0 in 0 W/m2
07:57 35.2 °F 32.5 °F 30.2 in ESE 2 mph 6 mph 90% 0 in 0 W/m2
08:02 35.1 °F 32.2 °F 30.2 in ENE 2.9 mph 6 mph 89% 0 in 0 W/m2
08:07 34.7 °F 31.8 °F 30.2 in East 4 mph 8 mph 89% 0 in 0 W/m2
08:12 34.5 °F 31.6 °F 30.2 in ESE 4 mph 4 mph 89% 0 in 5 W/m2
08:17 34.3 °F 31.5 °F 30.2 in ESE 2 mph 8 mph 89% 0 in 5 W/m2
08:22 34.2 °F 31.3 °F 30.2 in ESE 6.9 mph 9 mph 89% 0 in 7 W/m2
08:27 34 °F 30.7 °F 30.2 in ESE 4 mph 9 mph 88% 0 in 12 W/m2
08:32 34 °F 30.7 °F 30.2 in ESE 2.9 mph 4 mph 88% 0 in 14 W/m2
08:37 34 °F 30.7 °F 30.2 in ENE 2.9 mph 6 mph 88% 0 in 14 W/m2
08:42 34 °F 30.7 °F 30.2 in ESE 0.9 mph 9 mph 88% 0 in 18 W/m2
08:47 34 °F 30.7 °F 30.2 in East 2 mph 10 mph 88% 0 in 25 W/m2
08:52 34 °F 30.7 °F 30.2 in ESE 2.9 mph 6 mph 88% 0 in 25 W/m2
08:57 34 °F 30.7 °F 30.2 in East 2.9 mph 10 mph 88% 0 in 21 W/m2
09:02 33.6 °F 30.4 °F 30.2 in East 4 mph 7 mph 88% 0 in 19 W/m2
09:07 33.6 °F 30.4 °F 30.2 in NNE 2.9 mph 6 mph 88% 0 in 21 W/m2
09:12 33.6 °F 30.4 °F 30.2 in ENE 2 mph 8 mph 88% 0 in 26 W/m2
09:17 33.8 °F 30.6 °F 30.2 in ESE 0.9 mph 8 mph 88% 0 in 30 W/m2
09:22 34 °F 30.7 °F 30.2 in NE 2.9 mph 4 mph 88% 0 in 32 W/m2
09:27 34 °F 30.6 °F 30.2 in NE 2 mph 7 mph 87% 0 in 32 W/m2
09:32 34 °F 30.6 °F 30.2 in SSE 0.9 mph 5 mph 87% 0 in 35 W/m2
09:37 34 °F 30.6 °F 30.2 in ENE 2.9 mph 4 mph 87% 0 in 35 W/m2
09:42 34 °F 30.6 °F 30.2 in NE 0.9 mph 3 mph 87% 0 in 35 W/m2
09:47 34 °F 30.6 °F 30.2 in East 6.9 mph 10 mph 87% 0 in 32 W/m2
09:52 34 °F 30.6 °F 30.2 in SE 2 mph 8 mph 87% 0 in 32 W/m2
09:57 34.2 °F 30.7 °F 30.2 in ENE 2.9 mph 9 mph 87% 0 in 32 W/m2
10:02 34.2 °F 30.7 °F 30.2 in ENE 4 mph 7 mph 87% 0 in 42 W/m2
10:07 34.2 °F 30.7 °F 30.2 in ESE 4 mph 7 mph 87% 0 in 47 W/m2
10:12 34.2 °F 30.4 °F 30.2 in ENE 2 mph 5 mph 86% 0 in 37 W/m2
10:17 34.2 °F 30.4 °F 30.2 in NNE 4.9 mph 5 mph 86% 0 in 46 W/m2
10:22 34.2 °F 30.4 °F 30.2 in ENE 2 mph 5 mph 86% 0 in 53 W/m2
10:27 34.2 °F 30.4 °F 30.2 in ENE 2 mph 5 mph 86% 0 in 42 W/m2
10:32 34.3 °F 30.6 °F 30.2 in ENE 2 mph 7 mph 86% 0 in 35 W/m2
10:37 34.2 °F 30.2 °F 30.2 in East 2.9 mph 8 mph 85% 0 in 35 W/m2
10:42 34.2 °F 30.2 °F 30.2 in ENE 2 mph 8 mph 85% 0 in 42 W/m2
10:47 34.2 °F 30.4 °F 30.2 in NE 2 mph 4 mph 86% 0 in 49 W/m2
10:52 34.2 °F 30.2 °F 30.2 in ENE 2 mph 6 mph 85% 0 in 53 W/m2
10:57 34.2 °F 30.2 °F 30.2 in East 2 mph 7 mph 85% 0 in 65 W/m2
11:02 34.3 °F 30.4 °F 30.3 in East 4 mph 5 mph 85% 0 in 111 W/m2
11:07 34.3 °F 30.4 °F 30.2 in East 2 mph 8 mph 85% 0 in 107 W/m2
11:12 34.5 °F 30.6 °F 30.3 in NE 2 mph 6 mph 85% 0 in 93 W/m2
11:17 34.5 °F 30.2 °F 30.2 in ESE 4 mph 8 mph 84% 0 in 104 W/m2
11:22 34.5 °F 30.2 °F 30.2 in ESE 2.9 mph 5 mph 84% 0 in 97 W/m2
11:27 34.5 °F 30.2 °F 30.2 in NE 2 mph 12 mph 84% 0 in 98 W/m2
11:32 34.5 °F 30.2 °F 30.2 in NE 4 mph 5 mph 84% 0 in 95 W/m2
11:37 34.5 °F 30.2 °F 30.2 in East 2 mph 12 mph 84% 0 in 74 W/m2
11:42 34.5 °F 30.2 °F 30.3 in ENE 2 mph 4 mph 84% 0 in 65 W/m2
11:47 34.5 °F 30.2 °F 30.3 in NNE 2 mph 6 mph 84% 0 in 69 W/m2
11:52 34.5 °F 30.2 °F 30.2 in ENE 2.9 mph 5 mph 84% 0 in 76 W/m2
11:57 34.7 °F 30.4 °F 30.2 in SE 2.9 mph 8 mph 84% 0 in 95 W/m2
12:02 34.7 °F 30.4 °F 30.2 in East 2 mph 6 mph 84% 0 in 86 W/m2
12:07 34.9 °F 30.6 °F 30.2 in ESE 0.9 mph 7 mph 84% 0 in 93 W/m2
12:12 34.9 °F 30.6 °F 30.2 in East 2.9 mph 4 mph 84% 0 in 105 W/m2
12:17 34.9 °F 30.2 °F 30.2 in East 6.9 mph 7 mph 83% 0 in 97 W/m2
12:22 34.9 °F 30.2 °F 30.2 in NE 2 mph 11 mph 83% 0 in 118 W/m2
12:27 34.9 °F 30.2 °F 30.2 in SE 4.9 mph 7 mph 83% 0 in 134 W/m2
12:32 35.1 °F 30.4 °F 30.2 in ESE 2 mph 11 mph 83% 0 in 120 W/m2
12:37 35.1 °F 30.4 °F 30.2 in East 2 mph 5 mph 83% 0 in 116 W/m2
12:42 35.2 °F 30.6 °F 30.2 in ESE 2 mph 4 mph 83% 0 in 128 W/m2
12:47 35.2 °F 30.6 °F 30.2 in ESE 2 mph 5 mph 83% 0 in 139 W/m2
12:52 35.2 °F 30.4 °F 30.2 in East 2.9 mph 6 mph 82% 0 in 134 W/m2
12:57 35.2 °F 30.4 °F 30.2 in ENE 2.9 mph 4 mph 82% 0 in 167 W/m2
13:02 35.4 °F 30.6 °F 30.2 in ENE 4 mph 6 mph 82% 0 in 116 W/m2
13:07 35.2 °F 30 °F 30.2 in East 2 mph 9 mph 81% 0 in 111 W/m2
Juneau County Weather
Compliments of Weather Underground - 2 mb